Flight Track Log - Related Links

Times and Time Zones

All times are in EDT time to prevent confusion due to time zone crossing. See the AAY854 flight status page for this flight to view local times or setup timezone preferences in your user account.

Time Position Orientation Groundspeed Altitude Reporting Facility
EDT Latitude Longitude Course Direction KTS MPH feet Rate Location/Type
Mon 04:59:02 PM 27.9667 -82.6833 360° North 185 213 1,900  Level Tampa TRACON
Mon 04:59:20 PM 27.9833 -82.6833 360° North 202 232 2,300 1,615 Climbing Tampa TRACON
Mon 05:00:20 PM 28.0333 -82.6667 16° North 276 318 4,000 2,237 Climbing Tampa TRACON
Mon 05:02:09 PM 28.1697 -82.6942 350° North 279 321 8,600 2,316 Climbing Miami Center
Mon 05:03:11 PM 28.2517 -82.7183 345° North 294 338 10,600 1,694 Climbing Miami Center
Mon 05:04:13 PM 28.3494 -82.7406 349° North 338 389 12,100 2,049 Climbing Miami Center
Mon 05:05:14 PM 28.4817 -82.7714 348° North 390 449 14,800 2,244 Climbing Miami Center
Mon 05:06:16 PM 28.5822 -82.7950 348° North 406 467 16,700 1,742 Climbing Miami Center
Mon 05:07:18 PM 28.6981 -82.8247 347° North 425 489 18,400 2,016 Climbing Miami Center
Mon 05:08:21 PM 28.8450 -82.8617 348° North 426 490 20,900 2,000 Climbing Jacksonville Center
Mon 05:09:21 PM 28.9658 -82.8925 347° North 432 497 22,500 1,500 Climbing Jacksonville Center
Mon 05:10:21 PM 29.0911 -82.9233 348° North 446 513 23,900 1,450 Climbing Jacksonville Center
Mon 05:11:21 PM 29.2206 -82.9544 348° North 453 521 25,400 1,600 Climbing Jacksonville Center
Mon 05:12:21 PM 29.3500 -82.9856 348° North 464 534 27,100 1,650 Climbing Jacksonville Center
Mon 05:13:21 PM 29.4731 -83.0167 348° North 464 534 28,700 1,500 Climbing Jacksonville Center
Mon 05:14:21 PM 29.5878 -83.0478 347° North 469 540 30,100 1,550 Climbing Jacksonville Center
Mon 05:15:21 PM 29.7069 -83.1006 339° North 463 533 31,800 950 Climbing Jacksonville Center
Mon 05:16:21 PM 29.8194 -83.1536 338° Northwest 452 520 32,000 50 Climbing Jacksonville Center
Mon 05:17:21 PM 29.9364 -83.2067 339° North 447 514 31,900 -50 Descending Jacksonville Center
Mon 05:18:21 PM 30.0531 -83.2597 339° North 447 514 31,900  Level Jacksonville Center
Mon 05:19:21 PM 30.1656 -83.3106 339° North 442 509 31,900  Level Jacksonville Center
Mon 05:20:21 PM 30.2822 -83.3664 338° Northwest 442 509 31,900  Level Jacksonville Center
Mon 05:21:21 PM 30.3969 -83.4200 338° Northwest 442 509 31,900  Level Jacksonville Center
Mon 05:22:21 PM 30.5136 -83.4736 338° Northwest 442 509 31,900  Level Jacksonville Center
Mon 05:23:21 PM 30.6283 -83.5275 338° Northwest 442 509 31,900 50 Level Jacksonville Center
Mon 05:24:21 PM 30.7533 -83.5864 338° Northwest 442 509 32,000 50 Climbing Jacksonville Center
Mon 05:25:21 PM 30.8678 -83.6428 337° Northwest 442 509 32,000  Level Jacksonville Center
Mon 05:26:21 PM 30.9842 -83.6994 337° Northwest 442 509 32,000  Level Jacksonville Center
Mon 05:27:21 PM 31.1008 -83.7539 338° Northwest 442 509 32,000  Level Jacksonville Center
Mon 05:28:21 PM 31.2175 -83.8108 337° Northwest 442 509 32,000  Level Jacksonville Center
Mon 05:29:21 PM 31.3361 -83.8681 338° Northwest 447 514 32,000  Level Jacksonville Center
Mon 05:31:40 PM 31.5983 -83.9778 340° North 454 522 32,000  Level Atlanta Center
Mon 05:32:40 PM 31.7258 -84.0072 349° North 454 522 32,000 250 Level Atlanta Center
Mon 05:33:40 PM 31.8636 -84.0364 350° North 454 522 32,500 700 Climbing Atlanta Center
Mon 05:34:40 PM 31.9867 -84.0633 349° North 449 517 33,400 750 Climbing Atlanta Center
Mon 05:35:40 PM 32.1139 -84.0708 357° North 449 517 34,000 300 Climbing Atlanta Center
Mon 05:36:40 PM 32.2392 -84.0758 358° North 449 517 34,000  Level Atlanta Center
Mon 05:37:40 PM 32.3644 -84.0831 357° North 443 510 34,000  Level Atlanta Center
Mon 05:38:40 PM 32.4917 -84.0906 357° North 443 510 34,000  Level Atlanta Center
Mon 05:39:40 PM 32.6169 -84.0981 357° North 448 516 34,000  Level Atlanta Center
Mon 05:40:40 PM 32.7444 -84.1056 357° North 448 516 34,000  Level Atlanta Center
Mon 05:41:40 PM 32.8717 -84.1131 357° North 453 521 34,000  Level Atlanta Center
Mon 05:42:40 PM 32.9969 -84.1231 356° North 453 521 34,000  Level Atlanta Center
Mon 05:43:40 PM 33.1222 -84.1331 356° North 453 521 34,000  Level Atlanta Center
Mon 05:44:40 PM 33.2472 -84.1381 358° North 453 521 34,000  Level Atlanta Center
Mon 05:45:40 PM 33.3725 -84.1483 356° North 453 521 34,000  Level Atlanta Center
Mon 05:46:40 PM 33.4978 -84.1533 358° North 448 516 34,000  Level Atlanta Center
Mon 05:47:40 PM 33.6231 -84.1611 357° North 448 516 34,000  Level Atlanta Center
Mon 05:48:40 PM 33.7503 -84.1711 356° North 448 516 34,000  Level Atlanta Center
Mon 05:49:40 PM 33.8778 -84.1939 352° North 448 516 34,000  Level Atlanta Center
Mon 05:50:40 PM 33.9944 -84.2167 351° North 443 510 34,000  Level Atlanta Center
Mon 05:51:40 PM 34.1197 -84.2444 350° North 443 510 34,000  Level Atlanta Center
Mon 05:52:40 PM 34.2406 -84.2725 349° North 443 510 34,000  Level Atlanta Center
Mon 05:53:40 PM 34.3639 -84.3006 349° North 443 510 34,000  Level Atlanta Center
Mon 05:54:40 PM 34.4722 -84.3236 350° North 450 518 34,000  Level Atlanta Center
Mon 05:55:40 PM 34.5933 -84.3542 348° North 450 518 34,000  Level Atlanta Center
Mon 05:56:40 PM 34.7142 -84.3825 349° North 450 518 34,000  Level Atlanta Center
Mon 05:57:40 PM 34.8350 -84.4083 350° North 450 518 34,000  Level Atlanta Center
Mon 05:58:40 PM 34.9561 -84.4367 349° North 450 518 34,000  Level Atlanta Center
Mon 05:59:40 PM 35.0769 -84.4650 349° North 445 512 34,000  Level Atlanta Center
Mon 06:00:40 PM 35.1958 -84.4911 350° North 445 512 34,000  Level Atlanta Center
Mon 06:01:40 PM 35.3147 -84.5197 349° North 445 512 34,000  Level Atlanta Center
Mon 06:02:40 PM 35.4336 -84.5486 349° North 440 506 34,000  Level Atlanta Center
Mon 06:03:40 PM 35.5564 -84.5747 350° North 440 506 34,000  Level Atlanta Center
Mon 06:04:40 PM 35.6753 -84.6036 349° North 440 506 34,000  Level Atlanta Center
Mon 06:05:40 PM 35.7983 -84.6328 349° North 440 506 34,000  Level Atlanta Center
Mon 06:06:40 PM 35.9211 -84.6567 351° North 440 506 34,000  Level Atlanta Center
Mon 06:09:02 PM 36.2058 -84.7289 348° North 446 513 34,000  Level Indianapolis Center
Mon 06:10:04 PM 36.3281 -84.7583 349° North 446 513 34,000  Level Indianapolis Center
Mon 06:11:06 PM 36.4747 -84.7878 351° North 446 513 34,000  Level Indianapolis Center
Mon 06:12:08 PM 36.5972 -84.8011 355° North 446 513 34,000  Level Indianapolis Center
Mon 06:13:10 PM 36.7203 -84.8150 355° North 446 513 34,000  Level Indianapolis Center
Mon 06:14:12 PM 36.8442 -84.8294 355° North 446 513 34,000  Level Indianapolis Center
Mon 06:15:14 PM 36.9672 -84.8442 355° North 446 513 34,000  Level Indianapolis Center
Mon 06:16:15 PM 37.0919 -84.8581 355° North 446 513 34,000  Level Indianapolis Center
Mon 06:17:17 PM 37.2361 -84.8764 354° North 445 512 34,000  Level Indianapolis Center
Mon 06:18:19 PM 37.3597 -84.8900 355° North 445 512 34,000  Level Indianapolis Center
Mon 06:19:21 PM 37.4814 -84.9061 354° North 443 510 34,000  Level Indianapolis Center
Mon 06:20:23 PM 37.6053 -84.9200 355° North 443 510 34,000  Level Indianapolis Center
Mon 06:21:25 PM 37.7308 -84.9333 355° North 445 512 34,000  Level Indianapolis Center
Mon 06:22:27 PM 37.8542 -84.9497 354° North 445 512 34,000  Level Indianapolis Center
Mon 06:23:29 PM 38.0003 -84.9658 355° North 445 512 34,000  Level Indianapolis Center
Mon 06:24:31 PM 38.1258 -84.9869 352° North 449 517 34,000  Level Indianapolis Center
Mon 06:25:33 PM 38.2503 -85.0269 346° North 457 526 34,000  Level Indianapolis Center
Mon 06:26:35 PM 38.3717 -85.0689 345° North 456 525 34,000  Level Indianapolis Center
Mon 06:27:37 PM 38.4956 -85.1111 345° North 456 525 34,000  Level Indianapolis Center
Mon 06:28:39 PM 38.6181 -85.1556 344° North 456 525 34,000 -97 Level Indianapolis Center
Mon 06:29:41 PM 38.7428 -85.2006 344° North 456 525 33,800 -484 Descending Indianapolis Center
Mon 06:30:43 PM 38.8608 -85.2417 345° North 446 513 33,000 -1,113 Descending Indianapolis Center
Mon 06:31:45 PM 39.0053 -85.2922 345° North 446 513 31,500 -1,355 Descending Indianapolis Center
Mon 06:32:47 PM 39.1256 -85.3361 344° North 448 516 30,200 -1,306 Descending Indianapolis Center
Mon 06:33:49 PM 39.2458 -85.3806 344° North 448 516 28,800 -1,065 Descending Indianapolis Center
Mon 06:34:51 PM 39.3664 -85.4228 345° North 448 516 28,000 -387 Descending Indianapolis Center
Mon 06:35:53 PM 39.4836 -85.4653 344° North 448 516 28,000 -290 Level Indianapolis Center
Mon 06:36:55 PM 39.6247 -85.5175 344° North 443 510 27,400 -968 Descending Indianapolis Center
Mon 06:37:57 PM 39.7428 -85.5581 345° North 443 510 26,000 -1,452 Descending Indianapolis Center
Mon 06:38:59 PM 39.8542 -85.5978 345° North 431 496 24,400 -968 Descending Indianapolis Center
Mon 06:40:01 PM 39.9592 -85.6358 344° North 407 468 24,000 -677 Descending Indianapolis Center
Mon 06:41:03 PM 40.0672 -85.6750 344° North 405 466 23,000 -968 Descending Indianapolis Center
Mon 06:42:05 PM 40.1958 -85.7233 344° North 405 466 22,000 -484 Descending Indianapolis Center
Mon 06:43:07 PM 40.3008 -85.7606 345° North 398 458 22,000  Level Indianapolis Center
Mon 06:43:53 PM 40.3853 -85.7903 345° North 397 457 22,000 -667 Level Chicago Center
Mon 06:44:55 PM 40.4917 -85.8300 344° North 398 458 20,800 -1,452 Descending Chicago Center
Mon 06:45:57 PM 40.5981 -85.8711 344° North 399 459 19,000 -1,887 Descending Chicago Center
Mon 06:46:59 PM 40.7106 -85.9128 344° North 385 443 16,900 -2,177 Descending Chicago Center
Mon 06:48:01 PM 40.8125 -85.9508 344° North 383 441 14,500 -2,177 Descending Chicago Center
Mon 06:49:03 PM 40.9125 -85.9878 344° North 374 430 12,400 -1,680 Descending Chicago Center
Mon 06:50:06 PM 41.0097 -86.0261 343° North 367 422 11,000 -720 Descending Chicago Center
Mon 06:51:08 PM 41.1089 -86.0578 346° North 366 421 10,900 -532 Descending Chicago Center
Mon 06:52:10 PM 41.2022 -86.0797 350° North 345 397 9,900 -1,065 Descending Chicago Center
Mon 06:53:12 PM 41.3014 -86.1075 348° North 308 354 8,700 -1,306 Descending Chicago Center
Mon 06:54:14 PM 41.3803 -86.1297 348° North 293 337 7,200 -1,645 Descending Chicago Center
Mon 06:55:16 PM 41.4578 -86.1503 349° North 286 329 5,300 -1,935 Descending Chicago Center
Mon 06:56:18 PM 41.5356 -86.1633 353° North 283 326 3,200 -1,113 Descending Chicago Center
Mon 06:57:20 PM 41.6094 -86.1756 353° North 279 321 3,000 -144 Descending Chicago Center
Mon 06:58:23 PM 41.6689 -86.1858 353° North 244 281 2,900 -524 Descending Chicago Center
Mon 06:59:26 PM 41.7058 -86.2317 317° Northwest 189 217 1,900 -816 Descending Chicago Center
Mon 07:00:28 PM 41.7031 -86.2906 266° West 165 190 1,200 -677 Descending Chicago Center

Login

Don't have an account? Register now (free) for customized features, flight alerts, and more!